Almond, NY

2:16 PM EDT on September 18, 2014 (GMT -0400)
Ardachy Farm | Change Station
CLOSE
Current Station
Personal Weather Station
Location: Alfred Station, NY
Elevation: 1877 ft
Nearby Weather Stations

Elev 1877 ft 42.28 °N, 77.77 °W | Updated 25 seconds ago

Partly Cloudy
Partly Cloudy
66.2 °F
Feels Like 66.2 °F
N
9.2
Wind Variable Wind from South
Gusts 9.8 mph

Today
High -- | Low -- °F
--% Chance of Precip.
Yesterday
High -- | Low -- °F
Precip. -- in
6:54 AM 7:15 PM
Waning Crescent, 25% visible
Pressure 30.11 in
Visibility 10.0 miles
Clouds Scattered Clouds 3900 ft
Scattered Clouds 4900 ft
Mostly Cloudy 6000 ft
Dew Point 50 °F
Humidity 55%
Rainfall 0.00 in
Snow Depth Not available.
UV 4 out of 12
Pollen 3.60 out of 12
Ozone Good
Flu Activity Not available.
METAR KELZ 181756Z AUTO 27006KT 10SM SCT039 SCT049 BKN060 16/07 A3010 RMK AO2 SLP194 T01560072 10178 20056 50003

More Conditions Fewer Conditions

Pressure 30.11 in
Visibility 10.0 miles
Clouds Scattered Clouds 3900 ft
Scattered Clouds 4900 ft
Mostly Cloudy 6000 ft
Dew Point 50 °F
Humidity 55%
Rainfall 0.00 in
Snow Depth Not available.
UV 4 out of 12
Pollen 3.60 out of 12
Ozone Good
Flu Activity Not available.
METAR KELZ 181756Z AUTO 27006KT 10SM SCT039 SCT049 BKN060 16/07 A3010 RMK AO2 SLP194 T01560072 10178 20056 50003

More Conditions Fewer Conditions

10-Day Weather Forecast

Almanac

Astronomy

Sep. 18, 2014 Rise Set
Actual Time 6:54 AM EDT 7:15 PM EDT
Civil Twilight 6:26 AM EDT 7:43 PM EDT
Nautical Twilight 5:53 AM EDT 8:16 PM EDT
Astronomical Twilight 5:19 AM EDT 8:50 PM EDT
Moon 1:40 AM EDT 4:09 PM EDT
Length of Visible Light 13h 17m
Length of Day
12h 21m
Tomorrow will be 2m 49s shorter.
Waning Crescent, 25% of the Moon is Illuminated
Today
Waning Crescent
Sep 24
New
Oct 1
First Quarter
Oct 8
Full
Oct 15
Last Quarter

Today's Extremes

State Highs State Lows

Community

WunderPhotos

Upload Photos

1,754,410 photos uploaded!

Nearby

Air Quality

  Air Quality AQ Index Pollutant
Yesterday Good
OZONE
Yesterday Good
PM2.5
Current Good
OZONE
Thursday Good
PM2.5
Thursday Good
OZONE
Friday Good
OZONE
Friday Good
PM2.5

Snow Depth

Station Depth Elevation
No new snow has been reported.

Earthquake Activity

City Distance Mag. Time & Date
No recent earthquake activity has been reported nearby.
Minimum magnitude displayed is 2.5.

Coastal Water Temperatures

Place Temperature
No Stations Reporting

Nearby Weather Stations